createdAt,value
2019-01-08T00:01:11.111Z,15.53
2019-01-08T00:03:40.514Z,17.47
2019-01-08T00:06:10.003Z,13.70
2019-01-08T00:08:39.500Z,13.40
2019-01-08T00:11:08.959Z,16.80
2019-01-08T00:13:38.491Z,15.57
2019-01-08T00:16:07.946Z,15.00
2019-01-08T00:18:38.447Z,16.13
2019-01-08T00:21:07.944Z,14.40
2019-01-08T00:23:37.351Z,15.37
2019-01-08T00:26:06.833Z,16.80
2019-01-08T00:28:43.107Z,19.33
2019-01-08T00:31:07.547Z,16.50
2019-01-08T00:33:36.994Z,10.07
2019-01-08T00:36:06.487Z,16.07
2019-01-08T00:38:35.914Z,14.30
2019-01-08T00:41:05.372Z,13.67
2019-01-08T00:43:36.659Z,13.03
2019-01-08T00:46:06.093Z,17.33
2019-01-08T00:48:35.550Z,15.70
2019-01-08T00:51:05.056Z,17.63
2019-01-08T00:53:34.557Z,13.10
2019-01-08T00:56:04.014Z,17.10
2019-01-08T00:58:33.478Z,15.70
2019-01-08T01:01:02.933Z,16.40
2019-01-08T01:03:32.439Z,23.27
2019-01-08T01:06:01.948Z,18.50
2019-01-08T01:08:31.363Z,11.87
2019-01-08T01:11:00.817Z,12.83
2019-01-08T01:13:30.323Z,12.93
2019-01-08T01:15:59.830Z,14.30
2019-01-08T01:18:29.336Z,13.97
2019-01-08T01:20:58.875Z,13.67
2019-01-08T01:23:28.293Z,14.77
2019-01-08T01:25:57.770Z,20.33
2019-01-08T01:28:27.451Z,15.63
2019-01-08T01:30:56.919Z,13.47
2019-01-08T01:33:26.339Z,15.13
2019-01-08T01:35:55.854Z,13.53
2019-01-08T01:38:25.370Z,19.90
2019-01-08T01:40:54.849Z,12.27
2019-01-08T01:43:24.300Z,11.60
2019-01-08T01:45:53.754Z,15.90
2019-01-08T01:48:23.259Z,19.10
2019-01-08T01:50:52.821Z,15.60
2019-01-08T01:53:22.320Z,12.03
2019-01-08T01:55:51.775Z,17.93
2019-01-08T01:58:21.234Z,14.80
2019-01-08T02:00:50.723Z,20.60
2019-01-08T02:03:20.218Z,12.17
2019-01-08T02:05:49.698Z,14.30
2019-01-08T02:08:19.142Z,13.77
2019-01-08T02:10:48.581Z,15.43
2019-01-08T02:13:18.115Z,9.00
2019-01-08T02:15:47.589Z,17.10
2019-01-08T02:18:17.017Z,15.87
2019-01-08T02:20:46.521Z,17.40
2019-01-08T02:23:16.045Z,18.07
2019-01-08T02:25:45.499Z,17.20
2019-01-08T02:28:14.954Z,18.63
2019-01-08T02:30:44.415Z,20.93
2019-01-08T02:33:13.942Z,12.43
2019-01-08T02:35:43.432Z,16.23
2019-01-08T02:38:12.865Z,10.53
2019-01-08T02:40:42.389Z,20.33
2019-01-08T02:43:12.277Z,13.77
2019-01-08T02:45:41.768Z,18.33
2019-01-08T02:48:11.163Z,16.97
2019-01-08T02:50:40.730Z,18.77
2019-01-08T02:53:10.263Z,15.40
2019-01-08T02:55:39.745Z,16.27
2019-01-08T02:58:09.174Z,13.67
2019-01-08T03:00:38.650Z,15.17
2019-01-08T03:03:08.160Z,14.30
2019-01-08T03:05:37.637Z,15.23
2019-01-08T03:08:07.034Z,14.30
2019-01-08T03:10:37.009Z,13.67
2019-01-08T03:13:06.491Z,15.13
2019-01-08T03:15:35.964Z,15.63
2019-01-08T03:18:05.476Z,19.30
2019-01-08T03:20:34.985Z,16.30
2019-01-08T03:23:04.404Z,7.83
2019-01-08T03:25:33.874Z,19.43
2019-01-08T03:28:03.445Z,14.60
2019-01-08T03:30:32.893Z,14.80
2019-01-08T03:33:02.303Z,19.03
2019-01-08T03:35:31.825Z,14.57
2019-01-08T03:38:01.345Z,21.70
2019-01-08T03:40:30.810Z,16.50
2019-01-08T03:43:00.547Z,13.60
2019-01-08T03:45:29.992Z,11.60
2019-01-08T03:47:59.501Z,15.43
2019-01-08T03:50:28.974Z,12.00
2019-01-08T03:52:58.432Z,11.93
2019-01-08T03:55:27.877Z,10.90
2019-01-08T03:57:57.321Z,15.53
2019-01-08T04:00:26.770Z,12.70
2019-01-08T04:02:56.282Z,16.77
2019-01-08T04:05:25.813Z,22.70
2019-01-08T04:07:55.264Z,30.47
2019-01-08T04:10:24.737Z,29.90
2019-01-08T04:12:54.289Z,21.30
2019-01-08T04:15:23.818Z,16.00
2019-01-08T04:17:53.232Z,18.30
2019-01-08T04:20:22.741Z,18.27
2019-01-08T04:22:52.233Z,17.17
2019-01-08T04:25:21.671Z,20.77
2019-01-08T04:27:51.140Z,16.60
2019-01-08T04:30:20.579Z,22.37
2019-01-08T04:32:50.059Z,14.70
2019-01-08T04:35:19.563Z,15.70
2019-01-08T04:37:49.068Z,13.43
2019-01-08T04:40:18.876Z,18.07
2019-01-08T04:42:48.689Z,15.23
2019-01-08T04:45:18.145Z,19.93
2019-01-08T04:47:47.659Z,23.53
2019-01-08T04:50:17.136Z,21.20
2019-01-08T04:52:46.567Z,19.17
2019-01-08T04:55:16.141Z,16.70
2019-01-08T04:57:45.805Z,18.07
2019-01-08T05:00:15.305Z,13.23
2019-01-08T05:02:44.750Z,23.60
2019-01-08T05:05:14.265Z,15.87
2019-01-08T05:07:43.790Z,11.40
2019-01-08T05:10:13.233Z,15.63
2019-01-08T05:12:42.792Z,11.47
2019-01-08T05:15:12.256Z,11.60
2019-01-08T05:17:41.701Z,15.50
2019-01-08T05:20:11.194Z,19.17
2019-01-08T05:22:40.700Z,16.97
2019-01-08T05:25:10.164Z,12.83
2019-01-08T05:27:39.628Z,20.17
2019-01-08T05:30:10.186Z,17.10
2019-01-08T05:32:39.717Z,21.50
2019-01-08T05:35:09.319Z,12.83
2019-01-08T05:37:38.770Z,13.27
2019-01-08T05:40:08.261Z,19.57
2019-01-08T05:42:37.829Z,17.37
2019-01-08T05:45:08.573Z,17.20
2019-01-08T05:47:37.965Z,16.87
2019-01-08T05:50:07.777Z,14.93
2019-01-08T05:52:37.237Z,21.83
2019-01-08T05:55:06.838Z,14.87
2019-01-08T05:57:36.407Z,15.60
2019-01-08T06:00:16.310Z,17.17
2019-01-08T06:02:42.688Z,20.23
2019-01-08T06:05:12.256Z,31.17
2019-01-08T06:07:41.787Z,17.20
2019-01-08T06:10:11.310Z,19.90
2019-01-08T06:12:40.751Z,20.07
2019-01-08T06:15:10.387Z,20.47
2019-01-08T06:17:39.907Z,12.63
2019-01-08T06:20:09.633Z,21.10
2019-01-08T06:22:39.140Z,18.47
2019-01-08T06:25:09.416Z,18.80
2019-01-08T06:27:39.028Z,21.00
2019-01-08T06:30:08.965Z,18.70
2019-01-08T06:32:38.505Z,16.27
2019-01-08T06:35:08.056Z,14.87
2019-01-08T06:37:37.491Z,21.17
2019-01-08T06:40:07.073Z,18.03
2019-01-08T06:42:36.747Z,23.93
2019-01-08T06:45:06.783Z,19.33
2019-01-08T06:47:36.244Z,16.97
2019-01-08T06:50:06.936Z,16.47
2019-01-08T06:52:36.511Z,12.47
2019-01-08T06:55:06.907Z,21.83
2019-01-08T06:57:37.173Z,18.80
2019-01-08T07:00:07.770Z,15.50
2019-01-08T07:02:38.465Z,18.73
2019-01-08T07:05:08.115Z,19.67
2019-01-08T07:07:37.557Z,12.97
2019-01-08T07:10:07.755Z,10.43
2019-01-08T07:12:37.243Z,17.27
2019-01-08T07:15:06.999Z,19.53
2019-01-08T07:17:36.596Z,23.03
2019-01-08T07:20:06.427Z,13.23
2019-01-08T07:22:35.860Z,11.53
2019-01-08T07:25:05.624Z,12.50
2019-01-08T07:27:35.161Z,14.57
2019-01-08T07:30:04.765Z,17.00
2019-01-08T07:32:34.272Z,26.67
2019-01-08T07:35:19.332Z,24.33
2019-01-08T07:37:53.108Z,29.87
2019-01-08T07:40:22.666Z,25.70
2019-01-08T07:42:52.094Z,13.20
2019-01-08T07:45:21.650Z,18.20
2019-01-08T07:47:55.095Z,18.63
2019-01-08T07:50:24.640Z,14.63
2019-01-08T07:52:54.091Z,22.47
2019-01-08T07:55:23.557Z,15.83
2019-01-08T07:57:53.083Z,14.97
2019-01-08T08:00:22.592Z,15.47
2019-01-08T08:02:52.018Z,10.47
2019-01-08T08:05:21.515Z,15.30
2019-01-08T08:07:51.067Z,13.27
2019-01-08T08:10:20.528Z,17.17
2019-01-08T08:12:49.970Z,14.47
2019-01-08T08:15:19.588Z,27.40
2019-01-08T08:17:49.078Z,15.70
2019-01-08T08:20:18.529Z,17.13
2019-01-08T08:22:48.050Z,20.83
2019-01-08T08:25:17.564Z,25.00
2019-01-08T08:27:47.100Z,16.57
2019-01-08T08:30:16.704Z,15.97
2019-01-08T08:32:46.171Z,13.10
2019-01-08T08:35:15.731Z,24.30
2019-01-08T08:37:45.201Z,19.13
2019-01-08T08:40:14.697Z,13.23
2019-01-08T08:42:44.259Z,21.17
2019-01-08T08:45:13.779Z,18.40
2019-01-08T08:47:43.197Z,19.87
2019-01-08T08:50:12.740Z,18.37
2019-01-08T08:52:42.274Z,24.00
2019-01-08T08:55:11.751Z,19.10
2019-01-08T08:57:41.171Z,15.60
2019-01-08T09:00:11.157Z,19.87
2019-01-08T09:02:41.746Z,23.83
2019-01-08T09:05:11.214Z,14.97
2019-01-08T09:07:40.668Z,14.03
2019-01-08T09:10:10.134Z,24.23
2019-01-08T09:12:39.581Z,14.57
2019-01-08T09:15:09.228Z,21.53
2019-01-08T09:17:38.747Z,15.10
2019-01-08T09:20:09.298Z,21.93
2019-01-08T09:22:38.752Z,19.47
2019-01-08T09:25:08.769Z,17.97
2019-01-08T09:27:38.322Z,18.00
2019-01-08T09:30:09.023Z,19.00
2019-01-08T09:32:38.426Z,16.23
2019-01-08T09:35:08.020Z,19.20
2019-01-08T09:37:37.561Z,16.50
2019-01-08T09:40:07.033Z,19.47
2019-01-08T09:42:36.530Z,18.70
2019-01-08T09:45:07.387Z,10.23
2019-01-08T09:47:36.909Z,19.73
2019-01-08T09:50:07.590Z,21.00
2019-01-08T09:52:37.115Z,24.30
2019-01-08T09:55:06.839Z,15.30
2019-01-08T09:57:36.239Z,17.47
2019-01-08T10:00:06.286Z,17.77
2019-01-08T10:02:35.799Z,14.50
2019-01-08T10:05:05.834Z,22.23
2019-01-08T10:07:35.280Z,14.07
2019-01-08T10:10:04.923Z,16.00
2019-01-08T10:12:34.429Z,19.57
2019-01-08T10:15:03.922Z,18.90
2019-01-08T10:17:33.329Z,19.23
2019-01-08T10:20:03.805Z,21.27
2019-01-08T10:22:33.756Z,23.57
2019-01-08T10:25:03.173Z,16.67
2019-01-08T10:27:32.572Z,19.63
2019-01-08T10:30:02.139Z,22.83
2019-01-08T10:32:31.720Z,21.07
2019-01-08T10:35:01.126Z,15.23
2019-01-08T10:37:30.587Z,21.10
2019-01-08T10:40:01.529Z,26.40
2019-01-08T10:42:31.344Z,16.80
2019-01-08T10:45:00.806Z,25.00
2019-01-08T10:47:30.225Z,15.33
2019-01-08T10:49:59.782Z,15.80
2019-01-08T10:52:29.328Z,13.73
2019-01-08T10:54:58.786Z,18.13
2019-01-08T10:57:28.175Z,19.20
2019-01-08T10:59:57.730Z,21.90
2019-01-08T11:02:27.215Z,15.37
2019-01-08T11:04:56.643Z,20.17
2019-01-08T11:07:26.082Z,22.33
2019-01-08T11:09:55.581Z,26.30
2019-01-08T11:12:24.977Z,18.77
2019-01-08T11:14:54.506Z,17.63
2019-01-08T11:17:24.045Z,20.03
2019-01-08T11:19:53.447Z,22.13
2019-01-08T11:22:22.928Z,18.43
2019-01-08T11:24:52.566Z,18.73
2019-01-08T11:27:22.058Z,28.10
2019-01-08T11:29:51.550Z,22.47
2019-01-08T11:32:20.962Z,24.63
2019-01-08T11:34:50.457Z,30.03
2019-01-08T11:37:19.994Z,22.20
2019-01-08T11:39:49.396Z,20.07
2019-01-08T11:42:18.907Z,19.63
2019-01-08T11:44:48.446Z,22.40
2019-01-08T11:47:17.974Z,19.20
2019-01-08T11:49:47.351Z,23.23
2019-01-08T11:52:16.897Z,18.03
2019-01-08T11:54:46.310Z,20.37
2019-01-08T11:57:15.699Z,28.83
2019-01-08T11:59:45.409Z,18.27
2019-01-08T12:02:14.933Z,19.63
2019-01-08T12:04:44.320Z,18.50
2019-01-08T12:07:13.767Z,16.53
2019-01-08T12:09:43.279Z,21.33
2019-01-08T12:12:12.774Z,21.43
2019-01-08T12:14:42.231Z,18.37
2019-01-08T12:17:11.672Z,20.10
2019-01-08T12:19:41.155Z,22.30
2019-01-08T12:22:10.811Z,16.03
2019-01-08T12:24:40.348Z,27.50
2019-01-08T12:27:09.785Z,22.53
2019-01-08T12:29:39.333Z,24.67
2019-01-08T12:32:08.800Z,20.53
2019-01-08T12:34:38.310Z,21.63
2019-01-08T12:37:07.873Z,19.97
2019-01-08T12:39:37.258Z,22.23
2019-01-08T12:42:06.675Z,29.27
2019-01-08T12:44:36.295Z,21.57
2019-01-08T12:47:05.915Z,22.83
2019-01-08T12:49:35.310Z,22.50
2019-01-08T12:52:04.776Z,24.83
2019-01-08T12:54:34.384Z,24.13
2019-01-08T12:57:03.919Z,20.37
2019-01-08T12:59:33.441Z,21.40
2019-01-08T13:02:02.918Z,24.60
2019-01-08T13:04:32.442Z,20.60
2019-01-08T13:07:02.018Z,21.83
2019-01-08T13:09:31.411Z,23.53
2019-01-08T13:12:00.820Z,41.90
2019-01-08T13:14:30.385Z,20.57
2019-01-08T13:16:59.898Z,20.97
2019-01-08T13:19:29.332Z,23.80
2019-01-08T13:21:58.781Z,20.73
2019-01-08T13:24:28.305Z,27.63
2019-01-08T13:26:57.868Z,22.10
2019-01-08T13:29:27.297Z,32.23
2019-01-08T13:31:56.742Z,26.83
2019-01-08T13:34:26.220Z,23.30
2019-01-08T13:36:55.784Z,22.60
2019-01-08T13:39:25.183Z,77.47
2019-01-08T13:41:54.579Z,30.07
2019-01-08T13:44:24.140Z,44.70
2019-01-08T13:46:53.683Z,36.57
2019-01-08T13:49:23.134Z,30.87
2019-01-08T13:51:52.677Z,41.57
2019-01-08T13:54:22.088Z,28.77
2019-01-08T13:56:51.481Z,33.30
2019-01-08T13:59:21.020Z,31.00
2019-01-08T14:01:50.511Z,21.60
2019-01-08T14:04:21.219Z,165.40
2019-01-08T14:06:50.704Z,107.03
2019-01-08T14:09:20.189Z,36.77
2019-01-08T14:11:49.696Z,28.17
2019-01-08T14:14:19.125Z,32.07
2019-01-08T14:16:48.566Z,38.63
2019-01-08T14:19:18.214Z,34.43
2019-01-08T14:21:47.784Z,234.87
2019-01-08T14:24:17.234Z,36.00
2019-01-08T14:26:46.689Z,38.13
2019-01-08T14:29:16.285Z,30.03
2019-01-08T14:31:45.690Z,32.37
2019-01-08T14:34:15.266Z,32.70
2019-01-08T14:36:44.838Z,32.07
2019-01-08T14:39:14.285Z,41.90
2019-01-08T14:41:43.699Z,28.93
2019-01-08T14:44:13.264Z,25.87
2019-01-08T14:46:42.781Z,33.10
2019-01-08T14:49:12.187Z,24.53
2019-01-08T14:51:41.645Z,45.27
2019-01-08T14:54:11.145Z,31.40
2019-01-08T14:56:40.648Z,40.27
2019-01-08T14:59:10.102Z,43.93
2019-01-08T15:01:39.519Z,59.77
2019-01-08T15:04:09.036Z,39.20
2019-01-08T15:06:38.719Z,37.13
2019-01-08T15:09:08.953Z,43.77
2019-01-08T15:11:38.548Z,34.93
2019-01-08T15:14:08.152Z,47.40
2019-01-08T15:16:37.655Z,42.30
2019-01-08T15:19:07.266Z,47.50
2019-01-08T15:21:36.914Z,64.37
2019-01-08T15:24:06.370Z,63.97
2019-01-08T15:26:35.753Z,47.77
2019-01-08T15:29:05.321Z,52.70
2019-01-08T15:31:34.840Z,48.70
2019-01-08T15:34:04.320Z,45.03
2019-01-08T15:36:33.845Z,58.60
2019-01-08T15:39:03.836Z,51.83
2019-01-08T15:41:33.330Z,52.70
2019-01-08T15:44:02.784Z,57.00
2019-01-08T15:46:32.331Z,59.93
2019-01-08T15:49:01.839Z,58.70
2019-01-08T15:51:31.221Z,54.77
2019-01-08T15:54:03.115Z,48.77
2019-01-08T15:56:32.606Z,59.67
2019-01-08T15:59:02.021Z,53.20
2019-01-08T16:01:31.495Z,52.30
2019-01-08T16:04:02.335Z,46.53
2019-01-08T16:06:31.935Z,70.23
2019-01-08T16:09:01.409Z,57.53
2019-01-08T16:11:30.819Z,56.33
2019-01-08T16:14:00.331Z,52.87
2019-01-08T16:16:29.893Z,55.93
2019-01-08T16:18:59.294Z,68.80
2019-01-08T16:21:28.698Z,59.27
2019-01-08T16:23:58.304Z,80.97
2019-01-08T16:26:27.951Z,88.20
2019-01-08T16:28:57.388Z,81.87
2019-01-08T16:31:27.063Z,69.17
2019-01-08T16:33:56.542Z,78.23
2019-01-08T16:36:25.973Z,59.60
2019-01-08T16:38:55.525Z,67.67
2019-01-08T16:41:25.036Z,82.37
2019-01-08T16:43:54.453Z,83.60
2019-01-08T16:46:23.941Z,90.30
2019-01-08T16:48:53.678Z,66.77
2019-01-08T16:51:23.190Z,72.77
2019-01-08T16:53:52.678Z,70.57
2019-01-08T16:56:22.078Z,69.27
2019-01-08T16:58:51.592Z,57.23
2019-01-08T17:01:21.142Z,53.93
2019-01-08T17:03:50.542Z,41.37
2019-01-08T17:06:19.928Z,36.37
2019-01-08T17:08:49.478Z,34.13
2019-01-08T17:11:18.884Z,34.53
2019-01-08T17:13:48.493Z,38.67
2019-01-08T17:16:18.052Z,42.77
2019-01-08T17:18:47.501Z,38.10
2019-01-08T17:21:16.903Z,56.77
2019-01-08T17:23:47.652Z,75.27
2019-01-08T17:26:17.212Z,124.87
2019-01-08T17:28:46.692Z,122.27
2019-01-08T17:31:16.142Z,130.50
2019-01-08T17:33:45.676Z,106.13
2019-01-08T17:36:15.199Z,113.97
2019-01-08T17:38:44.649Z,122.93
2019-01-08T17:41:14.129Z,140.80
2019-01-08T17:43:43.631Z,119.20
2019-01-08T17:46:13.197Z,133.80
2019-01-08T17:48:42.592Z,114.00
2019-01-08T17:51:12.086Z,113.43
2019-01-08T17:53:41.524Z,116.37
2019-01-08T17:56:10.936Z,147.63
2019-01-08T17:58:42.731Z,139.23
2019-01-08T18:01:21.755Z,121.10
2019-01-08T18:03:51.239Z,105.90
2019-01-08T18:06:20.655Z,85.10
2019-01-08T18:08:50.181Z,79.67
2019-01-08T18:11:19.802Z,90.30
2019-01-08T18:13:49.430Z,78.77
2019-01-08T18:16:18.898Z,57.33
2019-01-08T18:18:48.412Z,60.20
2019-01-08T18:21:17.919Z,60.13
2019-01-08T18:23:47.378Z,58.47
2019-01-08T18:26:16.935Z,68.40
2019-01-08T18:28:47.059Z,54.60
2019-01-08T18:31:16.603Z,59.57
2019-01-08T18:33:51.362Z,68.13
2019-01-08T18:36:17.280Z,84.50
2019-01-08T18:38:46.860Z,84.17
2019-01-08T18:41:16.366Z,87.33
2019-01-08T18:43:45.796Z,76.40
2019-01-08T18:46:15.382Z,80.20
2019-01-08T18:48:44.955Z,80.83
2019-01-08T18:51:15.244Z,95.40
2019-01-08T18:53:44.701Z,99.43
2019-01-08T18:56:14.176Z,78.33
2019-01-08T18:58:43.702Z,77.03
2019-01-08T19:01:13.554Z,90.37
2019-01-08T19:03:42.964Z,74.10
2019-01-08T19:06:12.447Z,62.93
2019-01-08T19:09:16.973Z,59.10
2019-01-08T19:11:46.379Z,51.10
2019-01-08T19:14:16.669Z,54.23
2019-01-08T19:16:46.245Z,54.80
2019-01-08T19:19:15.665Z,59.63
2019-01-08T19:21:45.069Z,76.00
2019-01-08T19:24:14.620Z,63.83
2019-01-08T19:26:44.137Z,49.10
2019-01-08T19:29:13.529Z,55.43
2019-01-08T19:31:42.975Z,58.43
2019-01-08T19:34:12.475Z,68.30
2019-01-08T19:36:42.032Z,51.73
2019-01-08T19:39:11.490Z,53.93
2019-01-08T19:41:40.914Z,50.77
2019-01-08T19:44:10.427Z,45.93
2019-01-08T19:46:40.011Z,46.23
2019-01-08T19:49:09.446Z,56.20
2019-01-08T19:51:38.985Z,61.13
2019-01-08T19:54:08.585Z,43.07
2019-01-08T19:56:37.989Z,46.97
2019-01-08T19:59:07.793Z,46.47
2019-01-08T20:01:37.316Z,44.27
2019-01-08T20:04:06.754Z,37.63
2019-01-08T20:06:36.192Z,52.97
2019-01-08T20:09:07.886Z,40.57
2019-01-08T20:11:37.410Z,44.90
2019-01-08T20:14:07.932Z,50.50
2019-01-08T20:16:37.548Z,58.20
2019-01-08T20:19:07.052Z,57.67
2019-01-08T20:21:36.561Z,55.73
2019-01-08T20:24:06.698Z,77.77
2019-01-08T20:26:36.205Z,66.47
2019-01-08T20:29:05.694Z,49.70
2019-01-08T20:31:35.295Z,55.33
2019-01-08T20:34:04.786Z,65.10
2019-01-08T20:36:34.369Z,58.37
2019-01-08T20:39:04.310Z,36.87
2019-01-08T20:41:33.736Z,44.20
2019-01-08T20:44:03.305Z,39.80
2019-01-08T20:46:32.849Z,36.67
2019-01-08T20:49:02.230Z,35.53
2019-01-08T20:51:31.773Z,31.43
2019-01-08T20:54:01.306Z,35.80
2019-01-08T20:56:30.828Z,32.70
2019-01-08T20:59:00.273Z,36.67
2019-01-08T21:01:29.846Z,37.63
2019-01-08T21:03:59.363Z,42.00
2019-01-08T21:06:28.876Z,40.90
2019-01-08T21:08:58.322Z,53.27
2019-01-08T21:11:27.830Z,40.20
2019-01-08T21:13:57.253Z,76.00
2019-01-08T21:16:26.779Z,62.03
2019-01-08T21:18:56.344Z,62.93
2019-01-08T21:21:28.953Z,68.90
2019-01-08T21:23:58.403Z,75.40
2019-01-08T21:26:31.414Z,91.27
2019-01-08T21:29:00.936Z,106.17
2019-01-08T21:31:32.840Z,122.13
2019-01-08T21:34:02.253Z,117.63
2019-01-08T21:36:31.676Z,114.37
2019-01-08T21:39:01.235Z,100.10
2019-01-08T21:41:30.738Z,103.33
2019-01-08T21:44:00.145Z,116.80
2019-01-08T21:46:29.700Z,122.03
2019-01-08T21:48:59.252Z,118.33
2019-01-08T21:51:28.753Z,135.57
2019-01-08T21:53:58.335Z,115.60
2019-01-08T21:56:27.837Z,124.37
2019-01-08T21:58:57.252Z,104.97
2019-01-08T22:01:26.713Z,98.87
2019-01-08T22:03:56.252Z,105.57
2019-01-08T22:06:25.751Z,116.50
2019-01-08T22:08:55.196Z,118.53
2019-01-08T22:11:24.634Z,95.77
2019-01-08T22:13:54.139Z,82.67
2019-01-08T22:16:23.670Z,70.80
2019-01-08T22:18:54.175Z,71.73
2019-01-08T22:21:23.594Z,65.13
2019-01-08T22:23:53.342Z,63.93
2019-01-08T22:26:22.926Z,57.73
2019-01-08T22:28:52.658Z,71.70
2019-01-08T22:31:22.212Z,63.60
2019-01-08T22:33:51.613Z,66.40
2019-01-08T22:36:21.356Z,70.37
2019-01-08T22:38:50.879Z,78.30
2019-01-08T22:41:20.518Z,71.03
2019-01-08T22:44:01.409Z,77.63
2019-01-08T22:46:31.241Z,58.03
2019-01-08T22:49:01.067Z,67.43
2019-01-08T22:51:30.605Z,66.07
2019-01-08T22:54:00.012Z,80.87
2019-01-08T22:56:30.725Z,52.53
2019-01-08T22:59:00.406Z,65.10
2019-01-08T23:01:34.663Z,72.20
2019-01-08T23:04:04.533Z,55.47
2019-01-08T23:06:33.951Z,54.57
2019-01-08T23:09:03.995Z,60.77
2019-01-08T23:11:33.420Z,64.37
2019-01-08T23:14:03.043Z,56.70
2019-01-08T23:16:32.523Z,64.67
2019-01-08T23:19:01.961Z,64.83
2019-01-08T23:21:31.448Z,68.13
2019-01-08T23:24:01.016Z,71.70
2019-01-08T23:26:30.699Z,64.60
2019-01-08T23:29:00.141Z,63.13
2019-01-08T23:31:29.537Z,62.63
2019-01-08T23:33:59.084Z,59.87
2019-01-08T23:36:28.579Z,54.27
2019-01-08T23:38:57.988Z,57.47
2019-01-08T23:41:27.457Z,56.03
2019-01-08T23:43:56.950Z,69.57
2019-01-08T23:46:26.455Z,61.80
2019-01-08T23:48:55.887Z,57.03
2019-01-08T23:51:25.372Z,73.93
2019-01-08T23:53:56.340Z,63.77
2019-01-08T23:56:27.305Z,59.77
2019-01-08T23:58:56.707Z,60.17
